Time;durP1;ratioP1;P1;durP2;ratioP2;P2;SDS_P1;SDS_P2;PMS_P1;PMS_P2;Temp;Humidity;BMP_temperature;BMP_pressure;BME280_temperature;BME280_humidity;BME280_pressure;Samples;Min_cycle;Max_cycle;Signal;HPM_P1;HPM_P2
2022/07/08 00:00:53;;;;;;;;;;;;;;;25.28;49.38;100551.03;2060874;28;20490;-50
2022/07/08 00:01:57;;;;;;;;;;;;;;;25.28;49.44;100553.81;2052860;28;19914;-47
2022/07/08 00:02:57;;;;;;;;;;;;;;;25.27;49.48;100552.94;2054830;28;19913;-48
2022/07/08 00:03:57;;;;;;;;;;;;;;;25.26;49.48;100548.47;2057011;28;19909;-48
2022/07/08 00:04:57;;;;;;;;;;;;;;;25.27;49.64;100552.09;2057131;28;19928;-50
2022/07/08 00:05:58;;;;;;;;;;;;;;;25.28;49.66;100556.56;2058236;28;20291;-51
2022/07/08 00:06:58;;;;;;;;;;;;;;;25.28;49.71;100548.28;2058024;28;19980;-48
2022/07/08 00:07:59;;;;;;;;;;;;;;;25.28;49.68;100551.03;2056222;28;20390;-50
2022/07/08 00:08:59;;;;;;;;;;;;;;;25.28;49.47;100553.81;2061135;28;19917;-48
2022/07/08 00:09:59;;;;;;;;;;;;;;;25.28;49.48;100554.66;2059593;28;20209;-50
2022/07/08 00:10:59;;;;;;;;;;;;;;;25.28;49.44;100559.31;2061203;28;19909;-50
2022/07/08 00:12:00;;;;;;;;;;;;;;;25.28;49.68;100562.06;2059099;28;19928;-48
2022/07/08 00:13:00;;;;;;;;;;;;;;;25.27;49.66;100560.38;2059079;28;19910;-47
2022/07/08 00:14:00;;;;;;;;;;;;;;;25.28;49.46;100559.31;2060083;28;20016;-47
2022/07/08 00:15:01;;;;;;;;;;;;;;;25.28;49.71;100564.84;2060950;28;20345;-49
2022/07/08 00:16:01;;;;;;;;;;;;;;;25.27;49.59;100563.97;2059211;28;19917;-51
2022/07/08 00:17:02;;;;;;;;;;;;;;;25.27;49.75;100563.97;2060773;28;19918;-50
2022/07/08 00:18:02;;;;;;;;;;;;;;;25.28;49.60;100570.34;2058758;28;20691;-51
2022/07/08 00:19:02;;;;;;;;;;;;;;;25.28;49.71;100571.22;2062449;28;20153;-48
2022/07/08 00:20:04;;;;;;;;;;;;;;;25.28;49.43;100570.34;2058585;28;20786;-48
2022/07/08 00:21:04;;;;;;;;;;;;;;;25.26;49.53;100564.16;2059994;28;19921;-51
2022/07/08 00:22:05;;;;;;;;;;;;;;;25.27;49.72;100563.13;2059301;28;20007;-48
2022/07/08 00:23:05;;;;;;;;;;;;;;;25.28;49.71;100570.34;2060047;28;19917;-48
2022/07/08 00:24:05;;;;;;;;;;;;;;;25.28;49.55;100573.13;2059769;28;20298;-47
2022/07/08 00:25:06;;;;;;;;;;;;;;;25.27;49.77;100572.25;2060458;28;19918;-48
2022/07/08 00:26:06;;;;;;;;;;;;;;;25.27;49.79;100563.13;2058515;28;19928;-49
2022/07/08 00:27:06;;;;;;;;;;;;;;;25.27;49.77;100574.16;2062190;28;20209;-50
2022/07/08 00:28:07;;;;;;;;;;;;;;;25.28;49.65;100581.38;2059824;28;19967;-49
2022/07/08 00:29:07;;;;;;;;;;;;;;;25.27;49.78;100574.16;2058845;28;19914;-48
2022/07/08 00:30:08;;;;;;;;;;;;;;;25.26;49.56;100572.44;2060869;28;19918;-51
2022/07/08 00:31:08;;;;;;;;;;;;;;;25.26;49.82;100575.19;2058739;28;20213;-47
2022/07/08 00:32:09;;;;;;;;;;;;;;;25.27;49.68;100574.16;2059741;28;19913;-50
2022/07/08 00:33:09;;;;;;;;;;;;;;;25.26;49.85;100569.66;2052659;28;19924;-48
2022/07/08 00:34:09;;;;;;;;;;;;;;;25.26;49.58;100566.91;2057264;28;19971;-48
2022/07/08 00:35:09;;;;;;;;;;;;;;;25.25;49.62;100571.56;2060724;28;19960;-49
2022/07/08 00:36:10;;;;;;;;;;;;;;;25.26;49.76;100566.91;2049858;28;19918;-49
2022/07/08 00:37:10;;;;;;;;;;;;;;;25.25;49.89;100566.06;2048101;28;20679;-49
2022/07/08 00:38:11;;;;;;;;;;;;;;;25.26;49.91;100566.91;2062051;28;19917;-47
2022/07/08 00:39:11;;;;;;;;;;;;;;;25.25;49.71;100566.06;2053354;28;20311;-47
2022/07/08 00:40:12;;;;;;;;;;;;;;;25.24;49.86;100565.19;2061383;28;19906;-50
2022/07/08 00:41:14;;;;;;;;;;;;;;;25.26;49.86;100572.44;2050307;28;19917;-48
2022/07/08 00:42:15;;;;;;;;;;;;;;;25.24;49.77;100565.19;2061768;28;20263;-47
2022/07/08 00:43:35;;;;;;;;;;;;;;;25.25;49.79;100568.81;2057516;28;19918;-50
2022/07/08 00:44:35;;;;;;;;;;;;;;;25.24;49.94;100556.06;2053848;28;19917;-48
2022/07/08 00:45:36;;;;;;;;;;;;;;;25.24;50.07;100570.72;2058495;28;20007;-47
2022/07/08 00:46:36;;;;;;;;;;;;;;;25.24;49.93;100567.97;2062455;28;19940;-50
2022/07/08 00:47:37;;;;;;;;;;;;;;;25.24;49.88;100562.44;2061666;28;19933;-47
2022/07/08 00:48:37;;;;;;;;;;;;;;;25.24;49.69;100558.84;2061144;28;20015;-48
2022/07/08 00:49:38;;;;;;;;;;;;;;;25.26;49.83;100561.38;2060823;28;19917;-47
2022/07/08 00:50:38;;;;;;;;;;;;;;;25.24;49.92;100565.19;2060121;28;19924;-49
2022/07/08 00:51:39;;;;;;;;;;;;;;;25.24;49.76;100562.44;2059231;28;20315;-49
2022/07/08 00:52:41;;;;;;;;;;;;;;;25.24;49.82;100567.97;2057511;28;19910;-50
2022/07/08 00:53:43;;;;;;;;;;;;;;;25.24;49.84;100561.59;2061759;28;20403;-50
2022/07/08 00:54:44;;;;;;;;;;;;;;;25.25;49.95;100563.31;2060635;28;19917;-47
2022/07/08 00:55:44;;;;;;;;;;;;;;;25.24;49.76;100567.97;2057975;28;19974;-49
2022/07/08 00:56:45;;;;;;;;;;;;;;;25.24;49.92;100559.69;2060358;28;20331;-48
2022/07/08 00:57:45;;;;;;;;;;;;;;;25.23;50.00;100563.50;2059381;28;19943;-51
2022/07/08 00:58:46;;;;;;;;;;;;;;;25.24;50.01;100565.19;2061771;28;20590;-51
2022/07/08 00:59:48;;;;;;;;;;;;;;;25.23;49.78;100563.50;2055827;28;20399;-50
2022/07/08 01:00:48;;;;;;;;;;;;;;;25.23;49.96;100560.75;2059193;28;19921;-50
2022/07/08 01:01:49;;;;;;;;;;;;;;;25.23;49.76;100563.50;2058805;28;20395;-51
2022/07/08 01:02:51;;;;;;;;;;;;;;;25.23;49.95;100557.09;2057327;28;20178;-51
2022/07/08 01:03:51;;;;;;;;;;;;;;;25.22;49.87;100556.25;2057978;28;19931;-50
2022/07/08 01:04:51;;;;;;;;;;;;;;;25.24;50.02;100565.19;2060735;28;20252;-51
2022/07/08 01:05:52;;;;;;;;;;;;;;;25.22;50.04;100556.25;2059131;28;19917;-50
2022/07/08 01:06:52;;;;;;;;;;;;;;;25.24;50.02;100558.84;2056442;28;19924;-49
2022/07/08 01:07:52;;;;;;;;;;;;;;;25.22;49.78;100564.50;2056131;28;20013;-50
2022/07/08 01:08:52;;;;;;;;;;;;;;;25.23;49.95;100560.75;2059923;28;19968;-49
2022/07/08 01:09:53;;;;;;;;;;;;;;;25.23;49.96;100559.84;2055626;28;20321;-48
2022/07/08 01:10:53;;;;;;;;;;;;;;;25.23;50.11;100566.25;2057036;28;20045;-51
2022/07/08 01:11:54;;;;;;;;;;;;;;;25.23;50.00;100568.13;2059746;28;19986;-49
2022/07/08 01:12:54;;;;;;;;;;;;;;;25.23;49.79;100563.50;2054262;28;19918;-48
2022/07/08 01:13:55;;;;;;;;;;;;;;;25.23;49.89;100565.38;2059415;28;20027;-49
2022/07/08 01:14:55;;;;;;;;;;;;;;;25.22;49.84;100561.75;2061667;28;19921;-50
2022/07/08 01:15:56;;;;;;;;;;;;;;;25.22;50.15;100560.91;2060754;28;19917;-48
2022/07/08 01:16:56;;;;;;;;;;;;;;;25.22;49.87;100564.50;2057086;28;20005;-47
2022/07/08 01:17:56;;;;;;;;;;;;;;;25.22;49.95;100572.78;2061748;28;19918;-49
2022/07/08 01:18:56;;;;;;;;;;;;;;;25.21;49.95;100565.56;2057427;28;19970;-47
2022/07/08 01:19:57;;;;;;;;;;;;;;;25.21;49.89;100571.09;2061592;28;19936;-47
2022/07/08 01:20:58;;;;;;;;;;;;;;;25.21;50.04;100565.56;2063740;28;19996;-49
2022/07/08 01:21:58;;;;;;;;;;;;;;;25.22;50.10;100567.28;2055882;28;19917;-49
2022/07/08 01:22:58;;;;;;;;;;;;;;;25.21;50.08;100571.09;2059868;28;19917;-48
2022/07/08 01:23:59;;;;;;;;;;;;;;;25.21;50.11;100565.56;2057163;28;20374;-46
2022/07/08 01:24:59;;;;;;;;;;;;;;;25.22;49.94;100577.47;2060618;28;19928;-50
2022/07/08 01:26:01;;;;;;;;;;;;;;;25.22;49.91;100570.03;2060888;28;19948;-48
2022/07/08 01:27:01;;;;;;;;;;;;;;;25.21;50.16;100571.09;2062085;28;19991;-44
2022/07/08 01:28:01;;;;;;;;;;;;;;;25.21;50.07;100571.09;2051527;28;20309;-48
2022/07/08 01:29:02;;;;;;;;;;;;;;;25.21;49.96;100565.56;2053685;28;19928;-47
2022/07/08 01:30:03;;;;;;;;;;;;;;;25.21;50.10;100565.56;2056155;28;19925;-47
2022/07/08 01:31:03;;;;;;;;;;;;;;;25.21;49.94;100571.09;2060793;28;19967;-45
2022/07/08 01:32:04;;;;;;;;;;;;;;;25.22;49.99;100566.41;2057345;28;19917;-46
2022/07/08 01:33:04;;;;;;;;;;;;;;;25.21;49.86;100571.09;2060328;28;19924;-47
2022/07/08 01:34:04;;;;;;;;;;;;;;;25.21;50.13;100576.59;2061518;28;20384;-45
2022/07/08 01:35:05;;;;;;;;;;;;;;;25.21;50.11;100571.09;2061802;28;20524;-45
2022/07/08 01:36:05;;;;;;;;;;;;;;;25.21;49.93;100576.59;2062209;28;19972;-46
2022/07/08 01:37:06;;;;;;;;;;;;;;;25.22;49.95;100570.03;2059597;28;20197;-48
2022/07/08 01:38:06;;;;;;;;;;;;;;;25.22;50.00;100589.34;2060584;28;19922;-47
2022/07/08 01:39:07;;;;;;;;;;;;;;;25.22;50.16;100577.47;2062664;28;19917;-48
2022/07/08 01:40:07;;;;;;;;;;;;;;;25.21;50.09;100576.59;2055927;28;19923;-47
2022/07/08 01:41:08;;;;;;;;;;;;;;;25.21;50.05;100568.34;2059334;28;20614;-47
2022/07/08 01:42:08;;;;;;;;;;;;;;;25.20;50.18;100566.59;2061313;28;19921;-50
2022/07/08 01:43:08;;;;;;;;;;;;;;;25.21;49.95;100578.50;2060606;28;19960;-47
2022/07/08 01:44:09;;;;;;;;;;;;;;;25.20;49.90;100569.34;2059494;28;19913;-49
2022/07/08 01:45:10;;;;;;;;;;;;;;;25.21;49.95;100571.09;2053530;28;20524;-47
2022/07/08 01:46:10;;;;;;;;;;;;;;;25.21;50.01;100576.59;2060172;28;19913;-49
2022/07/08 01:47:10;;;;;;;;;;;;;;;25.21;50.12;100576.59;2062025;28;20215;-47
2022/07/08 01:48:11;;;;;;;;;;;;;;;25.21;50.13;100587.63;2057138;28;19951;-50
2022/07/08 01:49:14;;;;;;;;;;;;;;;25.20;50.16;100583.13;2061701;28;20271;-47
2022/07/08 01:50:15;;;;;;;;;;;;;;;25.21;50.20;100581.28;2058306;28;19909;-49
2022/07/08 01:51:15;;;;;;;;;;;;;;;25.20;50.03;100580.38;2061806;28;19927;-48
2022/07/08 01:52:15;;;;;;;;;;;;;;;25.20;50.17;100580.38;2061366;28;19924;-47
2022/07/08 01:53:16;;;;;;;;;;;;;;;25.20;50.04;100585.91;2053913;28;19924;-47
2022/07/08 01:54:16;;;;;;;;;;;;;;;25.19;50.03;100586.94;2061428;28;19972;-48
2022/07/08 01:55:16;;;;;;;;;;;;;;;25.20;50.28;100579.53;2059819;28;19929;-48
2022/07/08 01:56:17;;;;;;;;;;;;;;;25.19;50.31;100575.91;2061196;28;20440;-49
2022/07/08 01:57:18;;;;;;;;;;;;;;;25.20;50.31;100585.06;2061770;28;19928;-50
2022/07/08 01:58:19;;;;;;;;;;;;;;;25.18;50.36;100576.94;2058286;28;20359;-48
2022/07/08 01:59:19;;;;;;;;;;;;;;;25.19;50.33;100578.69;2060571;28;19940;-48
2022/07/08 02:00:19;;;;;;;;;;;;;;;25.18;50.26;100582.47;2060428;28;19981;-50
2022/07/08 02:01:20;;;;;;;;;;;;;;;25.18;50.32;100581.59;2058198;28;19917;-51
2022/07/08 02:02:21;;;;;;;;;;;;;;;25.18;50.17;100585.22;2058833;28;19918;-47
2022/07/08 02:03:21;;;;;;;;;;;;;;;25.17;50.10;100586.25;2061987;28;20237;-49
2022/07/08 02:04:21;;;;;;;;;;;;;;;25.18;50.15;100587.97;2059978;28;19917;-48
2022/07/08 02:05:22;;;;;;;;;;;;;;;25.18;50.13;100585.22;2062083;28;19917;-48
2022/07/08 02:06:22;;;;;;;;;;;;;;;25.17;50.23;100580.75;2060520;28;19913;-49
2022/07/08 02:07:22;;;;;;;;;;;;;;;25.18;50.29;100582.47;2062474;28;20031;-50
2022/07/08 02:08:23;;;;;;;;;;;;;;;25.18;50.35;100587.97;2053760;28;19955;-50
2022/07/08 02:09:24;;;;;;;;;;;;;;;25.18;50.20;100582.47;2058243;28;19924;-48
2022/07/08 02:10:24;;;;;;;;;;;;;;;25.17;50.17;100583.50;2060240;28;20330;-47
2022/07/08 02:12:43;;;;;;;;;;;;;;;25.18;50.32;100578.84;2060306;28;19918;-48
2022/07/08 02:13:44;;;;;;;;;;;;;;;25.18;50.18;100576.94;2058884;28;19957;-46
2022/07/08 02:15:04;;;;;;;;;;;;;;;25.18;50.32;100581.59;2054166;28;19970;-49
2022/07/08 02:16:04;;;;;;;;;;;;;;;25.17;50.38;100569.72;2054291;28;19914;-50
2022/07/08 02:17:05;;;;;;;;;;;;;;;25.17;50.36;100572.47;2056894;28;19947;-50
2022/07/08 02:18:05;;;;;;;;;;;;;;;25.18;50.19;100576.94;2059657;28;19956;-50
2022/07/08 02:19:05;;;;;;;;;;;;;;;25.18;50.40;100576.09;2061116;28;19948;-47
2022/07/08 02:20:07;;;;;;;;;;;;;;;25.18;50.33;100581.59;2061997;28;20877;-48
2022/07/08 02:21:07;;;;;;;;;;;;;;;25.19;50.24;100577.81;2060561;28;20048;-48
2022/07/08 02:22:08;;;;;;;;;;;;;;;25.17;50.42;100569.72;2062080;28;19917;-47
2022/07/08 02:23:08;;;;;;;;;;;;;;;25.18;50.21;100573.31;2054127;28;20835;-51
2022/07/08 02:24:08;;;;;;;;;;;;;;;25.17;50.15;100575.22;2057404;28;19921;-47
2022/07/08 02:25:09;;;;;;;;;;;;;;;25.17;50.15;100580.75;2060902;28;19920;-48
2022/07/08 02:26:09;;;;;;;;;;;;;;;25.17;50.31;100579.91;2061911;28;19914;-48
2022/07/08 02:27:10;;;;;;;;;;;;;;;25.17;50.25;100575.22;2057376;28;19918;-48
2022/07/08 02:28:10;;;;;;;;;;;;;;;25.16;50.43;100573.50;2056969;28;20386;-48
2022/07/08 02:29:10;;;;;;;;;;;;;;;25.17;50.26;100575.22;2059021;28;19924;-47
2022/07/08 02:30:11;;;;;;;;;;;;;;;25.16;50.22;100579.00;2059185;28;20016;-48
2022/07/08 02:31:11;;;;;;;;;;;;;;;25.16;50.50;100576.25;2060953;28;19976;-47
2022/07/08 02:32:11;;;;;;;;;;;;;;;25.17;50.38;100580.75;2061429;28;20308;-47
2022/07/08 02:33:12;;;;;;;;;;;;;;;25.16;50.30;100579.00;2056188;28;19918;-48
2022/07/08 02:34:13;;;;;;;;;;;;;;;25.16;50.23;100576.25;2060046;28;19914;-47
2022/07/08 02:35:13;;;;;;;;;;;;;;;25.16;50.50;100579.00;2062863;28;19917;-51
2022/07/08 02:36:13;;;;;;;;;;;;;;;25.17;50.38;100589.03;2054968;28;20303;-51
2022/07/08 02:37:14;;;;;;;;;;;;;;;25.16;50.33;100581.75;2052547;28;19980;-50
2022/07/08 02:38:14;;;;;;;;;;;;;;;25.16;50.49;100586.41;2055978;28;20062;-50
2022/07/08 02:39:14;;;;;;;;;;;;;;;25.16;50.33;100590.03;2058668;28;19917;-49
2022/07/08 02:40:15;;;;;;;;;;;;;;;25.16;50.52;100595.56;2058705;28;19921;-47
2022/07/08 02:41:15;;;;;;;;;;;;;;;25.15;50.38;100580.03;2060082;28;19964;-51
2022/07/08 02:42:15;;;;;;;;;;;;;;;25.14;50.43;100583.84;2060102;28;19917;-48
2022/07/08 02:43:16;;;;;;;;;;;;;;;25.15;50.52;100585.53;2060647;28;19917;-51
2022/07/08 02:44:16;;;;;;;;;;;;;;;25.14;50.36;100581.09;2059590;28;19917;-48
2022/07/08 02:45:17;;;;;;;;;;;;;;;25.14;50.44;100580.22;2061641;28;20343;-51
2022/07/08 02:46:17;;;;;;;;;;;;;;;25.15;50.35;100580.03;2057797;28;20316;-50
2022/07/08 02:47:17;;;;;;;;;;;;;;;25.14;50.36;100583.84;2056253;28;19917;-50
2022/07/08 02:48:18;;;;;;;;;;;;;;;25.14;50.60;100581.09;2053998;28;19917;-50
2022/07/08 02:49:18;;;;;;;;;;;;;;;25.14;50.32;100581.09;2059135;28;19921;-47
2022/07/08 02:50:18;;;;;;;;;;;;;;;25.14;50.50;100575.56;2059440;28;19957;-48
2022/07/08 02:51:19;;;;;;;;;;;;;;;25.14;50.60;100581.09;2054732;28;19922;-48
2022/07/08 02:52:19;;;;;;;;;;;;;;;25.14;50.54;100583.84;2056168;28;19918;-50
2022/07/08 02:53:19;;;;;;;;;;;;;;;25.14;50.63;100575.56;2059211;28;20533;-50
2022/07/08 02:54:20;;;;;;;;;;;;;;;25.15;50.75;100587.44;2061482;28;19910;-48
2022/07/08 02:55:20;;;;;;;;;;;;;;;25.14;50.45;100580.22;2059800;28;19918;-47
2022/07/08 02:56:21;;;;;;;;;;;;;;;25.14;50.38;100589.34;2064390;28;19940;-51
2022/07/08 02:57:21;;;;;;;;;;;;;;;25.15;50.49;100587.44;2052565;28;19910;-48
2022/07/08 02:58:21;;;;;;;;;;;;;;;25.14;50.59;100586.59;2051788;28;19918;-48
2022/07/08 02:59:22;;;;;;;;;;;;;;;25.15;50.34;100585.53;2060045;28;19910;-51
2022/07/08 03:00:22;;;;;;;;;;;;;;;25.15;50.60;100582.78;2061330;28;20295;-51
2022/07/08 03:01:22;;;;;;;;;;;;;;;25.14;50.61;100580.22;2055940;28;19914;-47
2022/07/08 03:02:23;;;;;;;;;;;;;;;25.14;50.42;100583.84;2058184;28;20333;-49
2022/07/08 03:03:23;;;;;;;;;;;;;;;25.13;50.63;100584.84;2059638;28;19917;-49
2022/07/08 03:04:23;;;;;;;;;;;;;;;25.15;50.54;100580.03;2059755;28;19936;-48
2022/07/08 03:05:24;;;;;;;;;;;;;;;25.14;50.43;100586.59;2061856;28;19963;-51
2022/07/08 03:06:24;;;;;;;;;;;;;;;25.14;50.59;100581.09;2054805;28;19910;-50
2022/07/08 03:07:24;;;;;;;;;;;;;;;25.13;50.65;100579.34;2053482;28;19918;-47
2022/07/08 03:08:24;;;;;;;;;;;;;;;25.14;50.59;100581.09;2054417;28;19957;-48
2022/07/08 03:09:25;;;;;;;;;;;;;;;25.14;50.47;100586.59;2052684;28;20342;-51
2022/07/08 03:10:25;;;;;;;;;;;;;;;25.15;50.46;100584.69;2060685;28;19955;-50
2022/07/08 03:11:27;;;;;;;;;;;;;;;25.14;50.47;100586.59;2057789;28;20347;-49
2022/07/08 03:12:27;;;;;;;;;;;;;;;25.14;50.44;100588.50;2061787;28;20718;-50
2022/07/08 03:13:27;;;;;;;;;;;;;;;25.15;50.66;100584.69;2059458;28;20220;-47
2022/07/08 03:14:27;;;;;;;;;;;;;;;25.14;50.50;100589.34;2060559;28;19956;-48
2022/07/08 03:15:28;;;;;;;;;;;;;;;25.14;50.67;100583.84;2059263;28;19913;-50
2022/07/08 03:16:28;;;;;;;;;;;;;;;25.13;50.66;100582.09;2061417;28;20739;-51
2022/07/08 03:17:28;;;;;;;;;;;;;;;25.14;50.61;100592.13;2059832;28;19917;-48
2022/07/08 03:18:29;;;;;;;;;;;;;;;25.14;50.48;100589.34;2061502;28;20312;-49
2022/07/08 03:19:29;;;;;;;;;;;;;;;25.15;50.61;100592.97;2058524;28;19917;-48
2022/07/08 03:20:29;;;;;;;;;;;;;;;25.13;50.61;100587.63;2060054;28;20360;-51
2022/07/08 03:21:29;;;;;;;;;;;;;;;25.14;50.66;100589.34;2061415;28;19971;-47
2022/07/08 03:22:30;;;;;;;;;;;;;;;25.14;50.67;100591.25;2059698;28;19975;-49
2022/07/08 03:23:31;;;;;;;;;;;;;;;25.13;50.58;100590.38;2060587;28;19980;-48
2022/07/08 03:24:31;;;;;;;;;;;;;;;25.13;50.56;100586.75;2061179;28;19922;-50
2022/07/08 03:25:33;;;;;;;;;;;;;;;25.13;50.76;100593.13;2056796;28;19910;-46
2022/07/08 03:26:33;;;;;;;;;;;;;;;25.12;50.76;100588.66;2056032;28;20012;-50
2022/07/08 03:27:33;;;;;;;;;;;;;;;25.13;50.74;100590.38;2060223;28;19940;-50
2022/07/08 03:28:34;;;;;;;;;;;;;;;25.13;50.56;100595.03;2059527;28;19928;-48
2022/07/08 03:29:34;;;;;;;;;;;;;;;25.12;50.59;100594.19;2044751;28;20032;-50
2022/07/08 03:30:35;;;;;;;;;;;;;;;25.12;50.59;100594.19;2049354;28;20008;-50
2022/07/08 03:31:35;;;;;;;;;;;;;;;25.13;50.90;100595.91;2053642;28;19921;-48
2022/07/08 03:32:35;;;;;;;;;;;;;;;25.12;50.91;100596.09;2061269;28;19963;-47
2022/07/08 03:33:35;;;;;;;;;;;;;;;25.12;50.64;100594.19;2058794;28;20256;-48
2022/07/08 03:34:36;;;;;;;;;;;;;;;25.13;50.65;100597.78;2061528;28;19918;-48
2022/07/08 03:35:36;;;;;;;;;;;;;;;25.12;50.64;100602.47;2058704;28;19999;-48
2022/07/08 03:36:37;;;;;;;;;;;;;;;25.12;50.83;100605.22;2060640;28;19925;-49
2022/07/08 03:37:40;;;;;;;;;;;;;;;25.13;50.92;100600.56;2052955;28;19918;-50
2022/07/08 03:38:41;;;;;;;;;;;;;;;25.12;50.94;100602.47;2057499;28;19928;-48
2022/07/08 03:39:41;;;;;;;;;;;;;;;25.12;50.62;100605.22;2061742;28;20265;-47
2022/07/08 03:42:00;;;;;;;;;;;;;;;25.13;50.74;100606.06;2056392;28;20385;-47
2022/07/08 03:43:00;;;;;;;;;;;;;;;25.11;50.79;100603.50;2057013;28;19921;-49
2022/07/08 03:44:01;;;;;;;;;;;;;;;25.12;50.99;100604.38;2060283;28;20015;-50
2022/07/08 03:45:01;;;;;;;;;;;;;;;25.12;50.94;100607.13;2060628;28;19982;-46
2022/07/08 03:46:01;;;;;;;;;;;;;;;25.11;50.96;100609.03;2059550;28;19921;-47
2022/07/08 03:47:02;;;;;;;;;;;;;;;25.12;50.99;100602.47;2056338;28;20268;-49
2022/07/08 03:48:03;;;;;;;;;;;;;;;25.12;50.89;100605.22;2055914;28;19919;-49
2022/07/08 03:49:03;;;;;;;;;;;;;;;25.12;50.92;100605.22;2059265;28;19917;-47
2022/07/08 03:50:04;;;;;;;;;;;;;;;25.12;50.77;100612.63;2059073;28;20318;-47
2022/07/08 03:51:04;;;;;;;;;;;;;;;25.11;50.85;100613.66;2060538;28;20336;-49
2022/07/08 03:52:05;;;;;;;;;;;;;;;25.11;50.98;100614.53;2059499;28;20280;-48
2022/07/08 03:53:05;;;;;;;;;;;;;;;25.12;50.89;100615.41;2055446;28;19925;-47
2022/07/08 03:54:05;;;;;;;;;;;;;;;25.11;50.98;100611.78;2051436;28;19918;-46
2022/07/08 03:55:06;;;;;;;;;;;;;;;25.11;50.78;100614.53;2058273;28;19925;-46
2022/07/08 03:56:07;;;;;;;;;;;;;;;25.12;50.94;100619.00;2061205;28;19991;-48
2022/07/08 03:57:07;;;;;;;;;;;;;;;25.10;50.99;100607.28;2056045;28;19922;-47
2022/07/08 03:58:08;;;;;;;;;;;;;;;25.11;50.98;100614.53;2055234;28;19913;-45
2022/07/08 03:59:08;;;;;;;;;;;;;;;25.11;50.83;100613.66;2060723;28;19964;-48
2022/07/08 04:00:09;;;;;;;;;;;;;;;25.11;50.88;100622.81;2058783;28;19952;-48
2022/07/08 04:01:09;;;;;;;;;;;;;;;25.11;50.85;100620.06;2060819;28;19918;-45
2022/07/08 04:02:10;;;;;;;;;;;;;;;25.11;50.90;100620.06;2058793;28;20644;-47
2022/07/08 04:03:10;;;;;;;;;;;;;;;25.11;50.85;100620.06;2058326;28;19918;-47
2022/07/08 04:04:10;;;;;;;;;;;;;;;25.10;50.87;100623.84;2058848;28;19948;-46
2022/07/08 04:05:10;;;;;;;;;;;;;;;25.11;50.98;100621.94;2059091;28;20256;-45
2022/07/08 04:06:11;;;;;;;;;;;;;;;25.10;51.02;100625.75;2060825;28;19925;-46
2022/07/08 04:07:11;;;;;;;;;;;;;;;25.09;50.91;100616.63;2053732;28;19956;-47
2022/07/08 04:08:11;;;;;;;;;;;;;;;25.09;51.08;100622.13;2057801;28;19948;-48
2022/07/08 04:09:12;;;;;;;;;;;;;;;25.09;50.89;100622.13;2061113;28;19906;-44
2022/07/08 04:10:12;;;;;;;;;;;;;;;25.09;50.87;100615.75;2059981;28;19925;-48
2022/07/08 04:11:13;;;;;;;;;;;;;;;25.09;51.12;100621.28;2060768;28;19932;-45
2022/07/08 04:12:13;;;;;;;;;;;;;;;25.09;50.87;100626.78;2060507;28;19964;-47
2022/07/08 04:13:14;;;;;;;;;;;;;;;25.09;50.91;100622.13;2050850;28;20084;-48
2022/07/08 04:14:14;;;;;;;;;;;;;;;25.09;51.09;100630.41;2051054;28;20320;-46
2022/07/08 04:15:14;;;;;;;;;;;;;;;25.09;50.88;100621.28;2060318;28;19929;-45
2022/07/08 04:16:15;;;;;;;;;;;;;;;25.09;50.96;100622.13;2060310;28;19921;-45
2022/07/08 04:17:15;;;;;;;;;;;;;;;25.08;51.05;100620.41;2058527;28;19921;-47
2022/07/08 04:18:15;;;;;;;;;;;;;;;25.08;50.82;100631.44;2060745;28;20511;-45
2022/07/08 04:19:16;;;;;;;;;;;;;;;25.09;51.17;100627.66;2060025;28;19921;-44
2022/07/08 04:20:16;;;;;;;;;;;;;;;25.08;51.17;100631.44;2059219;28;20302;-46
2022/07/08 04:21:16;;;;;;;;;;;;;;;25.09;50.95;100633.16;2060178;28;20036;-45
2022/07/08 04:22:17;;;;;;;;;;;;;;;25.09;50.88;100633.16;2060331;28;20376;-48
2022/07/08 04:23:17;;;;;;;;;;;;;;;25.09;51.09;100635.94;2059586;28;19921;-49
2022/07/08 04:24:18;;;;;;;;;;;;;;;25.09;50.83;100638.69;2052396;28;19925;-47
2022/07/08 04:25:18;;;;;;;;;;;;;;;25.09;50.97;100635.94;2056191;28;19921;-46
2022/07/08 04:26:19;;;;;;;;;;;;;;;25.08;51.05;100628.66;2054654;28;19964;-44
2022/07/08 04:27:19;;;;;;;;;;;;;;;25.08;50.97;100631.44;2060785;28;19917;-47
2022/07/08 04:28:19;;;;;;;;;;;;;;;25.09;51.07;100635.06;2059360;28;19918;-47
2022/07/08 04:29:20;;;;;;;;;;;;;;;25.08;51.14;100639.69;2060514;28;19910;-50
2022/07/08 04:30:20;;;;;;;;;;;;;;;25.09;51.05;100646.09;2057059;28;20336;-48
2022/07/08 04:31:20;;;;;;;;;;;;;;;25.08;51.03;100642.47;2057690;28;20827;-47
2022/07/08 04:32:20;;;;;;;;;;;;;;;25.08;51.15;100642.47;2059707;28;20028;-50
2022/07/08 04:33:21;;;;;;;;;;;;;;;25.08;51.16;100645.22;2058744;28;19924;-46
2022/07/08 04:34:21;;;;;;;;;;;;;;;25.09;51.17;100648.88;2061544;28;19910;-49
2022/07/08 04:35:21;;;;;;;;;;;;;;;25.08;51.11;100647.97;2058637;28;20311;-47
2022/07/08 04:36:22;;;;;;;;;;;;;;;25.09;51.14;100646.09;2058275;28;19932;-47
2022/07/08 04:37:22;;;;;;;;;;;;;;;25.08;51.17;100647.97;2060943;28;19921;-47
2022/07/08 04:38:22;;;;;;;;;;;;;;;25.07;51.26;100646.28;2058462;28;19937;-47
2022/07/08 04:39:23;;;;;;;;;;;;;;;25.08;50.96;100659.00;2058898;28;19917;-46
2022/07/08 04:40:23;;;;;;;;;;;;;;;25.07;51.23;100654.53;2060106;28;19917;-47
2022/07/08 04:41:23;;;;;;;;;;;;;;;25.06;51.11;100650.03;2059608;28;20008;-47
2022/07/08 04:42:24;;;;;;;;;;;;;;;25.07;51.03;100651.78;2051994;28;19917;-47
2022/07/08 04:43:24;;;;;;;;;;;;;;;25.06;51.25;100655.56;2050890;28;19920;-46
2022/07/08 04:44:24;;;;;;;;;;;;;;;25.07;51.20;100654.53;2058696;28;20398;-48
2022/07/08 04:45:24;;;;;;;;;;;;;;;25.06;51.14;100652.81;2061797;28;19925;-50
2022/07/08 04:46:25;;;;;;;;;;;;;;;25.06;51.05;100646.44;2058820;28;19928;-48
2022/07/08 04:47:25;;;;;;;;;;;;;;;25.07;51.02;100653.69;2060080;28;20374;-47
2022/07/08 04:48:25;;;;;;;;;;;;;;;25.06;51.03;100655.56;2059628;28;19924;-47
2022/07/08 04:49:26;;;;;;;;;;;;;;;25.07;51.11;100661.97;2057757;28;20483;-48
2022/07/08 04:50:26;;;;;;;;;;;;;;;25.05;51.30;100659.38;2060772;28;19917;-48
2022/07/08 04:51:27;;;;;;;;;;;;;;;25.05;51.12;100659.38;2060610;28;19924;-48
2022/07/08 04:52:28;;;;;;;;;;;;;;;25.05;51.12;100662.13;2058647;28;20272;-48
2022/07/08 04:53:28;;;;;;;;;;;;;;;25.06;51.29;100662.97;2059145;28;20236;-47
2022/07/08 04:54:29;;;;;;;;;;;;;;;25.05;51.20;100664.88;2058145;28;20306;-47
2022/07/08 04:55:29;;;;;;;;;;;;;;;25.05;51.32;100666.78;2052926;28;19917;-47
2022/07/08 04:56:29;;;;;;;;;;;;;;;25.05;50.97;100675.91;2057143;28;20016;-48
2022/07/08 04:57:32;;;;;;;;;;;;;;;25.06;51.16;100669.34;2060487;28;20518;-50
2022/07/08 04:58:33;;;;;;;;;;;;;;;25.05;51.21;100667.66;2059213;28;19921;-49
2022/07/08 04:59:33;;;;;;;;;;;;;;;25.06;51.31;100661.06;2058787;28;19940;-51
2022/07/08 05:00:34;;;;;;;;;;;;;;;25.06;51.07;100665.75;2060499;28;19914;-50
2022/07/08 05:01:34;;;;;;;;;;;;;;;25.07;51.16;100667.47;2058997;28;19969;-48
2022/07/08 05:02:36;;;;;;;;;;;;;;;25.07;51.24;100673.00;2059440;28;19921;-49
2022/07/08 05:03:36;;;;;;;;;;;;;;;25.06;51.39;100671.25;2059612;28;19921;-51
2022/07/08 05:04:37;;;;;;;;;;;;;;;25.05;51.24;100664.88;2056983;28;20675;-48
2022/07/08 05:05:37;;;;;;;;;;;;;;;25.06;51.34;100666.59;2068575;28;19966;-46
2022/07/08 05:06:37;;;;;;;;;;;;;;;25.05;51.34;100664.03;2063669;28;19983;-47
2022/07/08 05:07:38;;;;;;;;;;;;;;;25.05;51.27;100659.38;2058268;28;20133;-47
2022/07/08 05:08:38;;;;;;;;;;;;;;;25.06;51.33;100666.59;2060268;28;19921;-47
2022/07/08 05:09:38;;;;;;;;;;;;;;;25.06;51.29;100668.50;2057876;28;20141;-47
2022/07/08 05:10:38;;;;;;;;;;;;;;;25.05;51.45;100664.03;2060481;28;20028;-49
2022/07/08 05:11:39;;;;;;;;;;;;;;;25.04;51.14;100671.44;2059707;28;19939;-47
2022/07/08 05:12:39;;;;;;;;;;;;;;;25.05;51.20;100673.16;2049653;28;19929;-47
2022/07/08 05:13:40;;;;;;;;;;;;;;;25.04;51.35;100665.94;2059873;28;19984;-48